createdAt,value
2023-06-04T00:00:58.898Z,99694.47
2023-06-04T00:02:01.046Z,99696.19
2023-06-04T00:03:03.209Z,99693.63
2023-06-04T00:04:05.374Z,99696.41
2023-06-04T00:05:07.774Z,99696.41
2023-06-04T00:06:09.813Z,99699.25
2023-06-04T00:07:11.801Z,99693.88
2023-06-04T00:08:13.715Z,99692.13
2023-06-04T00:09:16.076Z,99704.88
2023-06-04T00:10:17.958Z,99700.59
2023-06-04T00:11:21.145Z,99700.69
2023-06-04T00:12:23.241Z,99700.59
2023-06-04T00:13:25.206Z,99703.28
2023-06-04T00:14:27.259Z,99708.41
2023-06-04T00:15:29.240Z,99709.25
2023-06-04T00:16:31.216Z,99700.34
2023-06-04T00:17:34.076Z,99704.88
2023-06-04T00:18:36.046Z,99698.63
2023-06-04T00:19:41.608Z,99699.59
2023-06-04T00:20:43.796Z,99699.00
2023-06-04T00:21:46.658Z,99706.19
2023-06-04T00:22:48.757Z,99699.34
2023-06-04T00:23:50.785Z,99704.00
2023-06-04T00:24:52.743Z,99710.56
2023-06-04T00:25:54.812Z,99701.78
2023-06-04T00:26:56.713Z,99708.25
2023-06-04T00:27:58.833Z,99703.84
2023-06-04T00:29:02.260Z,99707.28
2023-06-04T00:30:05.587Z,99701.03
2023-06-04T00:31:08.210Z,99706.19
2023-06-04T00:32:10.850Z,99707.16
2023-06-04T00:33:12.793Z,99705.19
2023-06-04T00:34:14.824Z,99708.88
2023-06-04T00:35:16.860Z,99703.50
2023-06-04T00:36:19.045Z,99709.47
2023-06-04T00:37:21.575Z,99706.94
2023-06-04T00:38:23.715Z,99703.50
2023-06-04T00:39:25.737Z,99705.31
2023-06-04T00:41:52.208Z,99704.25
2023-06-04T00:42:54.270Z,99702.25
2023-06-04T00:43:59.271Z,99705.59
2023-06-04T00:45:01.472Z,99703.75
2023-06-04T00:46:06.975Z,99692.00
2023-06-04T00:47:09.244Z,99702.53
2023-06-04T00:48:11.735Z,99701.53
2023-06-04T00:49:14.162Z,99705.81
2023-06-04T00:50:16.270Z,99696.66
2023-06-04T00:51:18.582Z,99700.09
2023-06-04T00:52:20.803Z,99710.00
2023-06-04T00:53:25.009Z,99702.91
2023-06-04T00:54:27.064Z,99705.47
2023-06-04T00:55:29.582Z,99707.31
2023-06-04T00:56:31.557Z,99710.09
2023-06-04T00:57:33.759Z,99695.72
2023-06-04T00:58:44.348Z,99705.34
2023-06-04T00:59:46.558Z,99706.22
2023-06-04T01:00:49.250Z,99704.38
2023-06-04T01:01:58.486Z,99705.09
2023-06-04T01:03:07.402Z,99703.28
2023-06-04T01:04:37.592Z,99701.06
2023-06-04T01:05:47.142Z,99700.34
2023-06-04T01:06:55.059Z,99704.84
2023-06-04T01:07:59.148Z,99702.16
2023-06-04T01:09:02.318Z,99704.75
2023-06-04T01:10:05.007Z,99707.94
2023-06-04T01:11:07.298Z,99708.91
2023-06-04T01:12:10.042Z,99704.50
2023-06-04T01:13:12.252Z,99692.03
2023-06-04T01:14:14.361Z,99705.59
2023-06-04T01:15:16.518Z,99704.75
2023-06-04T01:16:18.637Z,99694.97
2023-06-04T01:17:38.373Z,99697.66
2023-06-04T01:18:41.476Z,99695.69
2023-06-04T01:20:15.303Z,99697.19
2023-06-04T01:21:19.758Z,99695.44
2023-06-04T01:22:33.832Z,99699.72
2023-06-04T01:23:59.837Z,99696.94
2023-06-04T01:25:10.933Z,99696.09
2023-06-04T01:26:13.438Z,99693.50
2023-06-04T01:27:17.058Z,99696.28
2023-06-04T01:28:22.491Z,99700.81
2023-06-04T01:29:25.117Z,99685.69
2023-06-04T01:30:31.513Z,99689.81
2023-06-04T01:31:34.330Z,99689.81
2023-06-04T01:32:37.431Z,99682.75
2023-06-04T01:33:39.912Z,99688.13
2023-06-04T01:34:46.561Z,99693.25
2023-06-04T01:35:48.732Z,99682.50
2023-06-04T01:36:50.798Z,99694.09
2023-06-04T01:37:53.093Z,99688.63
2023-06-04T01:38:55.130Z,99703.66
2023-06-04T01:39:57.288Z,99700.97
2023-06-04T01:41:02.878Z,99697.16
2023-06-04T01:42:05.730Z,99701.56
2023-06-04T01:43:08.261Z,99706.09
2023-06-04T01:44:10.567Z,99700.59
2023-06-04T01:45:12.600Z,99700.34
2023-06-04T01:46:14.713Z,99696.66
2023-06-04T01:47:16.892Z,99699.59
2023-06-04T01:48:19.063Z,99717.22
2023-06-04T01:49:21.215Z,99704.47
2023-06-04T01:50:24.080Z,99707.81
2023-06-04T01:51:26.225Z,99697.75
2023-06-04T01:52:28.418Z,99701.19
2023-06-04T01:53:31.483Z,99704.72
2023-06-04T01:54:35.131Z,99697.75
2023-06-04T01:55:39.143Z,99706.72
2023-06-04T01:56:41.598Z,99706.47
2023-06-04T01:57:45.414Z,99704.63
2023-06-04T01:58:47.608Z,99696.16
2023-06-04T01:59:50.320Z,99700.44
2023-06-04T02:00:54.170Z,99705.56
2023-06-04T02:01:56.148Z,99706.59
2023-06-04T02:02:59.321Z,99707.69
2023-06-04T02:04:01.765Z,99709.63
2023-06-04T02:05:08.864Z,99705.97
2023-06-04T02:06:11.790Z,99705.84
2023-06-04T02:07:18.943Z,99703.75
2023-06-04T02:08:21.466Z,99695.31
2023-06-04T02:09:23.460Z,99706.44
2023-06-04T02:10:25.968Z,99716.69
2023-06-04T02:11:28.096Z,99715.94
2023-06-04T02:12:30.269Z,99709.00
2023-06-04T02:13:32.299Z,99720.16
2023-06-04T02:14:34.520Z,99716.44
2023-06-04T02:15:36.641Z,99724.50
2023-06-04T02:16:39.267Z,99722.94
2023-06-04T02:17:44.060Z,99718.16
2023-06-04T02:18:46.638Z,99716.09
2023-06-04T02:19:51.252Z,99709.53
2023-06-04T02:20:53.698Z,99722.03
2023-06-04T02:21:55.876Z,99725.94
2023-06-04T02:22:58.038Z,99726.75
2023-06-04T02:24:00.171Z,99728.94
2023-06-04T02:25:02.483Z,99720.31
2023-06-04T02:26:04.637Z,99735.09
2023-06-04T02:27:07.741Z,99729.69
2023-06-04T02:28:09.752Z,99724.78
2023-06-04T02:29:11.884Z,99731.28
2023-06-04T02:30:13.970Z,99731.13
2023-06-04T02:31:16.541Z,99730.91
2023-06-04T02:32:19.104Z,99724.47
2023-06-04T02:33:21.930Z,99723.69
2023-06-04T02:34:24.646Z,99722.63
2023-06-04T02:35:26.721Z,99730.13
2023-06-04T02:36:30.177Z,99724.75
2023-06-04T02:37:32.220Z,99725.75
2023-06-04T02:38:34.706Z,99717.56
2023-06-04T02:39:36.874Z,99726.72
2023-06-04T02:40:39.816Z,99725.00
2023-06-04T02:41:42.096Z,99727.78
2023-06-04T02:42:44.095Z,99724.50
2023-06-04T02:43:46.235Z,99716.94
2023-06-04T02:44:48.177Z,99726.84
2023-06-04T02:45:50.327Z,99731.81
2023-06-04T02:46:52.454Z,99726.78
2023-06-04T02:47:54.567Z,99722.72
2023-06-04T02:48:56.573Z,99722.06
2023-06-04T02:49:58.583Z,99728.88
2023-06-04T02:51:01.242Z,99721.44
2023-06-04T02:52:03.461Z,99715.38
2023-06-04T02:53:05.957Z,99719.28
2023-06-04T02:54:08.211Z,99719.81
2023-06-04T02:55:10.579Z,99718.25
2023-06-04T02:56:13.308Z,99723.03
2023-06-04T02:57:15.267Z,99716.41
2023-06-04T02:58:17.766Z,99710.94
2023-06-04T02:59:20.275Z,99719.81
2023-06-04T03:00:22.545Z,99715.41
2023-06-04T03:01:25.842Z,99711.00
2023-06-04T03:02:29.060Z,99705.91
2023-06-04T03:03:32.814Z,99715.44
2023-06-04T03:04:37.532Z,99711.19
2023-06-04T03:05:40.875Z,99712.56
2023-06-04T03:06:47.616Z,99718.78
2023-06-04T03:07:49.772Z,99711.34
2023-06-04T03:08:52.720Z,99709.94
2023-06-04T03:09:54.714Z,99702.13
2023-06-04T03:10:56.772Z,99713.03
2023-06-04T03:12:02.793Z,99713.03
2023-06-04T03:13:05.313Z,99715.44
2023-06-04T03:14:07.257Z,99718.81
2023-06-04T03:15:11.249Z,99721.53
2023-06-04T03:16:13.523Z,99723.88
2023-06-04T03:17:16.344Z,99721.81
2023-06-04T03:18:18.372Z,99719.34
2023-06-04T03:19:20.591Z,99713.69
2023-06-04T03:20:25.434Z,99722.31
2023-06-04T03:21:30.218Z,99712.56
2023-06-04T03:22:32.547Z,99719.34
2023-06-04T03:23:36.035Z,99720.25
2023-06-04T03:24:40.569Z,99725.59
2023-06-04T03:25:42.735Z,99722.34
2023-06-04T03:26:44.725Z,99718.41
2023-06-04T03:27:46.802Z,99720.41
2023-06-04T03:28:48.878Z,99717.53
2023-06-04T03:29:51.223Z,99720.94
2023-06-04T03:30:53.318Z,99720.63
2023-06-04T03:31:55.635Z,99724.66
2023-06-04T03:32:57.717Z,99717.50
2023-06-04T03:34:00.040Z,99731.81
2023-06-04T03:35:02.752Z,99734.50
2023-06-04T03:36:06.977Z,99735.09
2023-06-04T03:37:08.948Z,99735.78
2023-06-04T03:38:11.400Z,99751.75
2023-06-04T03:39:13.349Z,99748.25
2023-06-04T03:40:15.481Z,99746.66
2023-06-04T03:41:17.602Z,99751.88
2023-06-04T03:42:20.094Z,99752.22
2023-06-04T03:43:22.953Z,99745.34
2023-06-04T03:44:25.251Z,99750.06
2023-06-04T03:45:27.956Z,99741.69
2023-06-04T03:46:34.783Z,99741.16
2023-06-04T03:47:37.144Z,99740.78
2023-06-04T03:48:39.407Z,99744.81
2023-06-04T03:49:42.031Z,99746.44
2023-06-04T03:50:45.272Z,99747.28
2023-06-04T03:51:47.304Z,99744.34
2023-06-04T03:52:50.805Z,99752.00
2023-06-04T03:53:52.884Z,99739.00
2023-06-04T03:54:55.154Z,99741.16
2023-06-04T03:55:57.254Z,99737.00
2023-06-04T03:56:59.297Z,99737.47
2023-06-04T03:58:01.429Z,99739.31
2023-06-04T03:59:03.945Z,99739.88
2023-06-04T04:00:14.420Z,99742.25
2023-06-04T04:01:16.802Z,99742.84
2023-06-04T04:02:19.505Z,99740.84
2023-06-04T04:03:23.160Z,99735.88
2023-06-04T04:04:25.236Z,99740.38
2023-06-04T04:05:27.334Z,99733.53
2023-06-04T04:06:29.431Z,99732.63
2023-06-04T04:07:31.400Z,99739.00
2023-06-04T04:08:33.508Z,99741.81
2023-06-04T04:09:36.006Z,99740.59
2023-06-04T04:10:38.199Z,99742.88
2023-06-04T04:11:40.192Z,99733.81
2023-06-04T04:12:42.386Z,99732.31
2023-06-04T04:13:47.198Z,99738.72
2023-06-04T04:14:49.378Z,99739.25
2023-06-04T04:15:53.694Z,99743.13
2023-06-04T04:16:56.093Z,99739.59
2023-06-04T04:17:58.313Z,99739.22
2023-06-04T04:19:00.492Z,99743.19
2023-06-04T04:20:05.171Z,99732.44
2023-06-04T04:21:07.783Z,99729.94
2023-06-04T04:22:12.170Z,99730.50
2023-06-04T04:23:14.876Z,99724.78
2023-06-04T04:24:27.331Z,99731.94
2023-06-04T04:25:29.525Z,99723.50
2023-06-04T04:26:32.182Z,99727.53
2023-06-04T04:27:36.272Z,99722.66
2023-06-04T04:28:38.617Z,99728.16
2023-06-04T04:29:43.955Z,99732.97
2023-06-04T04:30:46.181Z,99723.34
2023-06-04T04:31:49.388Z,99735.88
2023-06-04T04:32:51.377Z,99742.56
2023-06-04T04:33:53.714Z,99747.25
2023-06-04T04:34:56.353Z,99750.09
2023-06-04T04:36:00.468Z,99751.34
2023-06-04T04:37:04.196Z,99754.72
2023-06-04T04:38:06.374Z,99752.44
2023-06-04T04:39:08.461Z,99757.91
2023-06-04T04:40:11.225Z,99749.72
2023-06-04T04:41:13.556Z,99751.69
2023-06-04T04:42:15.871Z,99752.19
2023-06-04T04:43:17.957Z,99757.16
2023-06-04T04:44:20.078Z,99751.63
2023-06-04T04:45:22.238Z,99759.38
2023-06-04T04:46:24.373Z,99761.75
2023-06-04T04:47:26.395Z,99757.50
2023-06-04T04:48:28.596Z,99753.06
2023-06-04T04:49:30.707Z,99748.94
2023-06-04T04:50:32.816Z,99751.66
2023-06-04T04:51:34.789Z,99752.47
2023-06-04T04:52:36.922Z,99762.09
2023-06-04T04:53:38.930Z,99755.31
2023-06-04T04:54:41.103Z,99748.19
2023-06-04T04:55:43.155Z,99760.56
2023-06-04T04:56:45.194Z,99758.31
2023-06-04T04:57:47.182Z,99752.34
2023-06-04T04:58:50.154Z,99753.56
2023-06-04T04:59:52.362Z,99754.72
2023-06-04T05:00:54.403Z,99767.66
2023-06-04T05:01:56.587Z,99778.88
2023-06-04T05:02:58.779Z,99784.53
2023-06-04T05:04:02.967Z,99787.72
2023-06-04T05:05:06.108Z,99786.81
2023-06-04T05:06:08.170Z,99785.25
2023-06-04T05:07:10.232Z,99790.16
2023-06-04T05:08:12.796Z,99794.94
2023-06-04T05:09:14.935Z,99804.50
2023-06-04T05:10:17.063Z,99804.56
2023-06-04T05:11:19.312Z,99810.72
2023-06-04T05:12:21.586Z,99817.88
2023-06-04T05:13:24.661Z,99806.81
2023-06-04T05:14:26.646Z,99809.09
2023-06-04T05:15:29.218Z,99812.16
2023-06-04T05:16:31.254Z,99819.53
2023-06-04T05:17:33.439Z,99818.81
2023-06-04T05:18:35.988Z,99812.56
2023-06-04T05:19:39.886Z,99814.50
2023-06-04T05:20:42.023Z,99827.88
2023-06-04T05:21:44.884Z,99823.59
2023-06-04T05:22:46.936Z,99818.34
2023-06-04T05:23:49.770Z,99823.56
2023-06-04T05:24:52.845Z,99816.56
2023-06-04T05:25:55.784Z,99818.63
2023-06-04T05:26:58.548Z,99818.88
2023-06-04T05:28:00.663Z,99827.84
2023-06-04T05:29:02.849Z,99829.28
2023-06-04T05:30:05.812Z,99828.44
2023-06-04T05:31:10.157Z,99825.66
2023-06-04T05:32:13.002Z,99824.25
2023-06-04T05:33:21.775Z,99822.00
2023-06-04T05:34:23.881Z,99818.44
2023-06-04T05:35:26.090Z,99818.56
2023-06-04T05:36:29.046Z,99822.38
2023-06-04T05:37:31.331Z,99821.59
2023-06-04T05:38:33.808Z,99833.56
2023-06-04T05:39:37.053Z,99834.91
2023-06-04T05:40:39.324Z,99820.22
2023-06-04T05:42:00.290Z,99833.22
2023-06-04T05:43:02.520Z,99836.13
2023-06-04T05:44:05.528Z,99838.03
2023-06-04T05:45:09.840Z,99845.31
2023-06-04T05:46:12.404Z,99844.91
2023-06-04T05:47:14.713Z,99843.75
2023-06-04T05:48:17.106Z,99849.38
2023-06-04T05:49:19.160Z,99851.91
2023-06-04T05:50:21.186Z,99848.47
2023-06-04T05:51:23.233Z,99855.47
2023-06-04T05:52:25.485Z,99864.97
2023-06-04T05:53:27.708Z,99863.88
2023-06-04T05:54:31.294Z,99858.06
2023-06-04T05:55:33.282Z,99867.50
2023-06-04T05:56:35.255Z,99852.59
2023-06-04T05:57:37.706Z,99862.41
2023-06-04T05:58:39.882Z,99862.06
2023-06-04T05:59:41.984Z,99859.63
2023-06-04T06:00:44.134Z,99864.78
2023-06-04T06:01:46.250Z,99861.16
2023-06-04T06:02:50.395Z,99865.81
2023-06-04T06:03:52.918Z,99872.63
2023-06-04T06:04:55.046Z,99866.84
2023-06-04T06:05:58.392Z,99877.34
2023-06-04T06:07:00.307Z,99865.44
2023-06-04T06:08:03.175Z,99866.97
2023-06-04T06:09:06.037Z,99862.19
2023-06-04T06:10:08.557Z,99864.16
2023-06-04T06:11:11.384Z,99868.75
2023-06-04T06:12:14.133Z,99860.84
2023-06-04T06:13:16.638Z,99866.56
2023-06-04T06:14:18.995Z,99861.13
2023-06-04T06:15:20.997Z,99865.13
2023-06-04T06:16:23.380Z,99866.47
2023-06-04T06:17:27.340Z,99866.13
2023-06-04T06:18:29.580Z,99875.91
2023-06-04T06:19:31.522Z,99870.09
2023-06-04T06:20:33.646Z,99877.38
2023-06-04T06:21:35.620Z,99877.06
2023-06-04T06:22:37.788Z,99877.44
2023-06-04T06:23:39.875Z,99881.78
2023-06-04T06:24:41.999Z,99877.13
2023-06-04T06:25:46.865Z,99882.97
2023-06-04T06:26:49.044Z,99888.41
2023-06-04T06:27:51.248Z,99883.66
2023-06-04T06:28:53.426Z,99890.53
2023-06-04T06:29:55.434Z,99886.63
2023-06-04T06:30:57.538Z,99885.13
2023-06-04T06:32:00.758Z,99887.69
2023-06-04T06:33:02.918Z,99896.47
2023-06-04T06:34:04.957Z,99889.56
2023-06-04T06:35:08.969Z,99890.03
2023-06-04T06:36:14.617Z,99889.50
2023-06-04T06:37:16.757Z,99894.69
2023-06-04T06:38:19.166Z,99905.69
2023-06-04T06:39:21.635Z,99902.59
2023-06-04T06:40:23.601Z,99896.28
2023-06-04T06:41:27.148Z,99892.38
2023-06-04T06:42:34.010Z,99900.97
2023-06-04T06:43:36.192Z,99904.69
2023-06-04T06:44:38.288Z,99915.25
2023-06-04T06:45:40.389Z,99909.31
2023-06-04T06:46:42.921Z,99912.84
2023-06-04T06:47:45.141Z,99921.00
2023-06-04T06:48:48.207Z,99915.69
2023-06-04T06:49:50.216Z,99915.28
2023-06-04T06:50:52.144Z,99915.88
2023-06-04T06:51:54.443Z,99922.47
2023-06-04T06:52:56.753Z,99925.47
2023-06-04T06:53:58.870Z,99926.47
2023-06-04T06:55:01.066Z,99934.19
2023-06-04T06:56:04.243Z,99930.63
2023-06-04T06:57:10.135Z,99916.19
2023-06-04T06:58:12.797Z,99923.34
2023-06-04T06:59:14.812Z,99923.34
2023-06-04T07:00:17.975Z,99931.59
2023-06-04T07:01:19.977Z,99938.28
2023-06-04T07:02:22.394Z,99928.31
2023-06-04T07:03:24.703Z,99949.28
2023-06-04T07:04:27.294Z,99947.84
2023-06-04T07:05:29.307Z,99947.50
2023-06-04T07:06:31.467Z,99929.88
2023-06-04T07:07:33.568Z,99932.97
2023-06-04T07:08:36.535Z,99932.97
2023-06-04T07:09:38.496Z,99934.75
2023-06-04T07:10:40.818Z,99934.75
2023-06-04T07:11:42.888Z,99940.75
2023-06-04T07:12:45.023Z,99940.75
2023-06-04T07:13:47.304Z,99948.41
2023-06-04T07:14:49.512Z,99939.28
2023-06-04T07:15:51.566Z,99934.16
2023-06-04T07:16:53.877Z,99951.84
2023-06-04T07:17:55.966Z,99947.00
2023-06-04T07:18:58.262Z,99954.13
2023-06-04T07:20:01.589Z,99960.38
2023-06-04T07:21:05.182Z,99957.13
2023-06-04T07:22:07.418Z,99964.22
2023-06-04T07:23:09.546Z,99963.81
2023-06-04T07:24:11.683Z,99961.69
2023-06-04T07:25:13.996Z,99966.06
2023-06-04T07:26:17.409Z,99966.53
2023-06-04T07:27:21.074Z,99980.34
2023-06-04T07:28:23.160Z,99977.91
2023-06-04T07:29:25.238Z,99991.94
2023-06-04T07:30:27.540Z,100001.31
2023-06-04T07:31:29.679Z,99991.13
2023-06-04T07:32:31.926Z,100000.06
2023-06-04T07:33:34.128Z,100003.13
2023-06-04T07:34:38.467Z,100008.34
2023-06-04T07:35:40.883Z,100018.72
2023-06-04T07:36:42.900Z,100020.78
2023-06-04T07:37:50.222Z,100021.72
2023-06-04T07:38:52.359Z,100028.53
2023-06-04T07:39:54.422Z,100043.19
2023-06-04T07:40:56.548Z,100046.22
2023-06-04T07:41:58.726Z,100048.72
2023-06-04T07:43:00.906Z,100063.97
2023-06-04T07:44:02.979Z,100071.63
2023-06-04T07:45:05.721Z,100075.78
2023-06-04T07:46:08.589Z,100078.91
2023-06-04T07:47:10.665Z,100081.81
2023-06-04T07:48:13.008Z,100082.06
2023-06-04T07:49:15.196Z,100076.34
2023-06-04T07:50:17.454Z,100095.84
2023-06-04T07:51:20.946Z,100104.44
2023-06-04T07:52:23.023Z,100097.22
2023-06-04T07:53:25.139Z,100122.19
2023-06-04T07:54:27.633Z,100119.81
2023-06-04T07:55:29.632Z,100100.44
2023-06-04T07:56:31.874Z,100114.47
2023-06-04T07:57:33.831Z,100120.66
2023-06-04T07:58:36.204Z,100121.97
2023-06-04T07:59:38.237Z,100117.06
2023-06-04T08:00:40.425Z,100121.91
2023-06-04T08:01:42.564Z,100109.88
2023-06-04T08:02:44.890Z,100112.03
2023-06-04T08:03:47.317Z,100110.75
2023-06-04T08:04:49.623Z,100101.06
2023-06-04T08:05:51.982Z,100105.81
2023-06-04T08:06:54.293Z,100108.66
2023-06-04T08:07:56.344Z,100119.56
2023-06-04T08:08:58.510Z,100114.19
2023-06-04T08:10:00.704Z,100114.88
2023-06-04T08:11:03.869Z,100122.66
2023-06-04T08:12:07.514Z,100130.88
2023-06-04T08:13:11.176Z,100147.13
2023-06-04T08:14:14.344Z,100157.56
2023-06-04T08:15:16.986Z,100164.03
2023-06-04T08:16:29.906Z,100163.22
2023-06-04T08:17:44.151Z,100171.03
2023-06-04T08:19:07.857Z,100159.72
2023-06-04T08:20:18.992Z,100162.94
2023-06-04T08:21:34.894Z,100173.91
2023-06-04T08:22:43.217Z,100158.44
2023-06-04T08:23:49.640Z,100157.03
2023-06-04T08:25:11.692Z,100144.66
2023-06-04T08:26:35.146Z,100147.44
2023-06-04T08:27:57.495Z,100149.25
2023-06-04T08:29:19.842Z,100152.38
2023-06-04T08:30:22.493Z,100147.63
2023-06-04T08:31:43.603Z,100146.44
2023-06-04T08:32:56.845Z,100153.06
2023-06-04T08:34:06.641Z,100155.00
2023-06-04T08:35:23.701Z,100155.75
2023-06-04T08:36:26.059Z,100160.16
2023-06-04T08:37:28.128Z,100163.72
2023-06-04T08:38:30.218Z,100161.31
2023-06-04T08:39:32.646Z,100156.56
2023-06-04T08:40:36.112Z,100163.88
2023-06-04T08:41:46.245Z,100160.09
2023-06-04T08:42:49.806Z,100164.06
2023-06-04T08:43:52.497Z,100165.16
2023-06-04T08:44:54.653Z,100179.72
2023-06-04T08:46:03.119Z,100179.81
2023-06-04T08:47:09.969Z,100189.59
2023-06-04T08:48:14.686Z,100186.13
2023-06-04T08:49:18.090Z,100196.56
2023-06-04T08:50:23.833Z,100197.63
2023-06-04T08:51:26.200Z,100205.34
2023-06-04T08:52:28.916Z,100193.91
2023-06-04T08:53:31.868Z,100188.66
2023-06-04T08:54:34.905Z,100181.22
2023-06-04T08:55:37.019Z,100176.72
2023-06-04T08:56:39.261Z,100178.06
2023-06-04T08:57:42.146Z,100192.72
2023-06-04T08:58:45.761Z,100188.50
2023-06-04T08:59:48.815Z,100201.91
2023-06-04T09:00:51.805Z,100193.78
2023-06-04T09:01:56.199Z,100187.25
2023-06-04T09:02:59.409Z,100180.94
2023-06-04T09:04:05.359Z,100191.88
2023-06-04T09:05:10.511Z,100196.66
2023-06-04T09:06:13.207Z,100198.09
2023-06-04T09:07:16.105Z,100196.72
2023-06-04T09:08:20.004Z,100198.94
2023-06-04T09:09:24.960Z,100206.31
2023-06-04T09:10:27.981Z,100206.13
2023-06-04T09:11:40.700Z,100205.16
2023-06-04T09:12:45.727Z,100214.94
2023-06-04T09:13:49.169Z,100220.84
2023-06-04T09:14:53.940Z,100218.84
2023-06-04T09:16:04.078Z,100214.19
2023-06-04T09:17:06.631Z,100217.41
2023-06-04T09:18:08.782Z,100207.75
2023-06-04T09:19:10.933Z,100200.00
2023-06-04T09:20:23.369Z,100199.81
2023-06-04T09:21:25.878Z,100197.22
2023-06-04T09:22:35.502Z,100189.94
2023-06-04T09:23:49.946Z,100176.44
2023-06-04T09:24:54.113Z,100178.34
2023-06-04T09:25:56.128Z,100173.19
2023-06-04T09:26:58.272Z,100172.41
2023-06-04T09:28:08.225Z,100180.84
2023-06-04T09:29:10.589Z,100177.97
2023-06-04T09:30:12.671Z,100191.56
2023-06-04T09:31:18.114Z,100209.09
2023-06-04T09:32:31.904Z,100209.75
2023-06-04T09:34:20.602Z,100207.75
2023-06-04T09:35:22.611Z,100202.22
2023-06-04T09:36:31.583Z,100207.19
2023-06-04T09:37:33.664Z,100200.06
2023-06-04T09:38:36.792Z,100199.06
2023-06-04T09:39:38.851Z,100201.16
2023-06-04T09:40:41.155Z,100199.53
2023-06-04T09:41:43.484Z,100191.75
2023-06-04T09:42:47.045Z,100196.94
2023-06-04T09:43:49.459Z,100192.84
2023-06-04T09:44:51.930Z,100204.63
2023-06-04T09:45:54.281Z,100201.81
2023-06-04T09:46:58.031Z,100193.97
2023-06-04T09:48:00.780Z,100194.19
2023-06-04T09:49:06.901Z,100194.50
2023-06-04T09:50:09.977Z,100198.88
2023-06-04T09:51:16.918Z,100206.00
2023-06-04T09:52:38.939Z,100215.88
2023-06-04T09:53:41.044Z,100227.75
2023-06-04T09:54:43.679Z,100224.31
2023-06-04T09:55:45.781Z,100222.59
2023-06-04T09:56:48.164Z,100229.47
2023-06-04T09:57:51.564Z,100235.00
2023-06-04T09:59:04.213Z,100240.00
2023-06-04T10:00:10.677Z,100247.06
2023-06-04T10:01:13.050Z,100246.13
2023-06-04T10:02:19.916Z,100241.72
2023-06-04T10:04:01.737Z,100233.13
2023-06-04T10:05:04.911Z,100246.41
2023-06-04T10:06:26.485Z,100249.59
2023-06-04T10:07:47.119Z,100240.47
2023-06-04T10:08:53.936Z,100238.47
2023-06-04T10:09:57.285Z,100241.84
2023-06-04T10:11:04.282Z,100249.00
2023-06-04T10:12:06.737Z,100240.00
2023-06-04T10:13:24.593Z,100253.81
2023-06-04T10:14:40.273Z,100242.31
2023-06-04T10:16:01.367Z,100235.31
2023-06-04T10:17:40.934Z,100240.00
2023-06-04T10:18:44.921Z,100257.41
2023-06-04T10:20:07.011Z,100254.66
2023-06-04T10:21:10.473Z,100258.00
2023-06-04T10:22:31.144Z,100268.13
2023-06-04T10:23:33.609Z,100255.66
2023-06-04T10:24:35.817Z,100265.47
2023-06-04T10:25:38.360Z,100275.16
2023-06-04T10:26:45.054Z,100265.78
2023-06-04T10:27:48.026Z,100274.03
2023-06-04T10:28:50.820Z,100277.00
2023-06-04T10:29:54.251Z,100276.34
2023-06-04T10:30:56.334Z,100287.38
2023-06-04T10:31:58.596Z,100288.66
2023-06-04T10:33:01.355Z,100281.94
2023-06-04T10:34:04.429Z,100288.94
2023-06-04T10:35:09.367Z,100293.75
2023-06-04T10:36:20.064Z,100287.88
2023-06-04T10:37:27.212Z,100279.66
2023-06-04T10:38:47.732Z,100280.59
2023-06-04T10:39:57.473Z,100286.56
2023-06-04T10:41:00.015Z,100290.00
2023-06-04T10:42:06.876Z,100280.13
2023-06-04T10:43:13.602Z,100282.44
2023-06-04T10:44:15.701Z,100297.38
2023-06-04T10:45:17.939Z,100302.91
2023-06-04T10:46:21.385Z,100295.56
2023-06-04T10:47:24.981Z,100294.84
2023-06-04T10:48:27.138Z,100303.38
2023-06-04T10:49:48.709Z,100291.75
2023-06-04T10:50:54.586Z,100303.25
2023-06-04T10:52:04.553Z,100302.69
2023-06-04T10:53:06.845Z,100308.72
2023-06-04T10:54:09.092Z,100304.91
2023-06-04T10:55:30.346Z,100304.13
2023-06-04T10:56:35.146Z,100307.59
2023-06-04T10:57:37.899Z,100315.09
2023-06-04T10:58:40.188Z,100317.56
2023-06-04T10:59:42.876Z,100313.16
2023-06-04T11:00:51.140Z,100312.56
2023-06-04T11:01:53.468Z,100319.81
2023-06-04T11:02:59.095Z,100319.53
2023-06-04T11:04:01.929Z,100320.19
2023-06-04T11:05:23.712Z,100320.00
2023-06-04T11:06:29.216Z,100338.41
2023-06-04T11:07:46.363Z,100316.81
2023-06-04T11:08:48.729Z,100329.25
2023-06-04T11:10:10.943Z,100334.22
2023-06-04T11:11:14.895Z,100335.56
2023-06-04T11:12:17.296Z,100331.06
2023-06-04T11:13:26.033Z,100335.75
2023-06-04T11:14:28.384Z,100341.19
2023-06-04T11:15:45.807Z,100346.19
2023-06-04T11:17:06.678Z,100334.03
2023-06-04T11:18:08.830Z,100339.66
2023-06-04T11:19:11.000Z,100347.38
2023-06-04T11:20:20.884Z,100339.50
2023-06-04T11:21:24.525Z,100342.00
2023-06-04T11:22:27.911Z,100348.09
2023-06-04T11:23:30.191Z,100334.34
2023-06-04T11:24:52.676Z,100349.25
2023-06-04T11:25:56.014Z,100335.75
2023-06-04T11:28:09.281Z,100348.16
2023-06-04T11:29:13.204Z,100340.69
2023-06-04T11:30:16.014Z,100351.50
2023-06-04T11:31:18.167Z,100350.22
2023-06-04T11:32:58.454Z,100353.50
2023-06-04T11:34:00.427Z,100352.91
2023-06-04T11:35:09.642Z,100367.19
2023-06-04T11:36:23.245Z,100358.69
2023-06-04T11:37:25.622Z,100374.84
2023-06-04T11:38:27.694Z,100364.16
2023-06-04T11:39:48.493Z,100370.06
2023-06-04T11:41:06.413Z,100371.66
2023-06-04T11:42:09.124Z,100370.94
2023-06-04T11:43:30.744Z,100372.75
2023-06-04T11:44:33.093Z,100378.81
2023-06-04T11:45:35.243Z,100379.25
2023-06-04T11:46:46.841Z,100362.28
2023-06-04T11:47:50.885Z,100380.66
2023-06-04T11:48:54.290Z,100378.84
2023-06-04T11:50:00.712Z,100386.53
2023-06-04T11:51:08.864Z,100382.38
2023-06-04T11:52:29.232Z,100381.53
2023-06-04T11:53:31.794Z,100394.66
2023-06-04T11:54:38.213Z,100389.50
2023-06-04T11:55:41.500Z,100394.78
2023-06-04T11:56:47.343Z,100404.03
2023-06-04T11:57:52.902Z,100398.78
2023-06-04T11:58:58.913Z,100397.81
2023-06-04T12:00:01.444Z,100401.81
2023-06-04T12:01:04.816Z,100400.31
2023-06-04T12:02:08.616Z,100397.47
2023-06-04T12:03:10.822Z,100411.91
2023-06-04T12:04:20.301Z,100416.47
2023-06-04T12:05:24.668Z,100414.25
2023-06-04T12:06:26.927Z,100409.06
2023-06-04T12:07:28.906Z,100406.47
2023-06-04T12:08:31.139Z,100416.81
2023-06-04T12:09:39.512Z,100406.63
2023-06-04T12:10:43.627Z,100404.22
2023-06-04T12:11:46.245Z,100409.34
2023-06-04T12:12:56.302Z,100414.25
2023-06-04T12:13:59.437Z,100420.63
2023-06-04T12:15:01.753Z,100417.19
2023-06-04T12:16:08.193Z,100422.91
2023-06-04T12:17:10.676Z,100424.78
2023-06-04T12:18:12.819Z,100407.59
2023-06-04T12:19:15.038Z,100419.09
2023-06-04T12:20:17.237Z,100424.13
2023-06-04T12:21:42.158Z,100421.81
2023-06-04T12:22:48.678Z,100429.28
2023-06-04T12:23:51.471Z,100415.78
2023-06-04T12:24:58.814Z,100427.47
2023-06-04T12:26:19.366Z,100421.78
2023-06-04T12:27:24.257Z,100417.63
2023-06-04T12:28:26.234Z,100431.84
2023-06-04T12:29:28.356Z,100418.13
2023-06-04T12:30:42.322Z,100424.94
2023-06-04T12:31:46.943Z,100421.16